Time;durP1;ratioP1;P1;durP2;ratioP2;P2;SDS_P1;SDS_P2;PMS_P1;PMS_P2;Temp;Humidity;BMP_temperature;BMP_pressure;BME280_temperature;BME280_humidity;BME280_pressure;Samples;Min_cycle;Max_cycle;Signal;HPM_P1;HPM_P2
2021/08/26 00:06:56;;;;;;;8.20;2.80;;;;;;;14.07;100.00;100504.19;111414;1202;73596;-80
2021/08/26 00:09:24;;;;;;;10.40;2.20;;;;;;;14.07;100.00;100499.27;111550;1202;61954;-79
2021/08/26 00:11:52;;;;;;;7.80;2.00;;;;;;;14.07;100.00;100499.55;111812;1195;61102;-80
2021/08/26 00:14:19;;;;;;;4.10;1.70;;;;;;;14.09;100.00;100501.36;112012;1200;75574;-81
2021/08/26 00:16:46;;;;;;;6.80;2.70;;;;;;;14.09;100.00;100499.02;111879;1202;70970;-85
2021/08/26 00:19:13;;;;;;;6.80;3.10;;;;;;;14.09;100.00;100503.94;111647;1201;72470;-82
2021/08/26 00:21:41;;;;;;;4.80;2.30;;;;;;;14.10;100.00;100500.12;111731;1202;61926;-82
2021/08/26 00:24:09;;;;;;;5.20;2.40;;;;;;;14.10;100.00;100501.40;111656;1200;60995;-81
2021/08/26 00:26:36;;;;;;;7.00;2.40;;;;;;;14.09;100.00;100498.52;111955;1202;74444;-82
2021/08/26 00:29:04;;;;;;;8.30;2.30;;;;;;;14.09;100.00;100498.52;111644;1201;61047;-83
2021/08/26 00:31:31;;;;;;;6.90;2.40;;;;;;;14.06;100.00;100491.50;111792;1202;73332;-82
2021/08/26 00:33:57;;;;;;;4.60;2.40;;;;;;;14.06;100.00;100490.67;111526;1202;61972;-82
2021/08/26 00:36:24;;;;;;;9.60;2.40;;;;;;;14.05;100.00;100494.38;111375;1195;61168;-82
2021/08/26 00:38:51;;;;;;;9.50;2.90;;;;;;;14.04;100.00;100494.44;111377;1195;75689;-80
2021/08/26 00:41:21;;;;;;;6.50;2.20;;;;;;;14.04;100.00;100489.52;111282;1202;61025;-81
2021/08/26 00:43:48;;;;;;;9.00;2.50;;;;;;;14.03;100.00;100488.63;111582;1200;73981;-80
2021/08/26 00:46:15;;;;;;;7.50;2.60;;;;;;;14.03;100.00;100488.13;111449;1202;62266;-81
2021/08/26 00:48:43;;;;;;;8.20;2.00;;;;;;;14.02;100.00;100486.98;111476;1202;61092;-81
2021/08/26 00:51:11;;;;;;;8.80;2.90;;;;;;;14.02;100.00;100482.58;111422;1202;74626;-80
2021/08/26 00:53:39;;;;;;;7.00;1.80;;;;;;;14.01;100.00;100479.79;111262;1195;71916;-80
2021/08/26 00:56:15;;;;;;;5.70;2.20;;;;;;;14.00;100.00;100479.96;111392;1202;73695;-80
2021/08/26 00:58:48;;;;;;;6.30;1.80;;;;;;;14.00;100.00;100475.20;111474;1202;61900;-80
2021/08/26 01:01:27;;;;;;;6.40;1.80;;;;;;;13.98;100.00;100474.39;111614;1195;61797;-80
2021/08/26 01:04:16;;;;;;;11.90;2.60;;;;;;;13.96;100.00;100472.12;111452;1202;74371;-81
2021/08/26 01:06:56;;;;;;;9.80;2.30;;;;;;;13.95;100.00;100468.27;111413;1202;71975;-80
2021/08/26 01:09:28;;;;;;;6.30;2.20;;;;;;;13.94;100.00;100461.61;111524;1200;74485;-84
2021/08/26 01:11:57;;;;;;;9.30;2.30;;;;;;;13.92;100.00;100459.71;111968;1196;63092;-79
2021/08/26 01:14:24;;;;;;;10.80;2.90;;;;;;;13.90;99.99;100460.81;112694;1200;61335;-80
2021/08/26 01:16:50;;;;;;;5.00;1.80;;;;;;;13.89;99.93;100459.92;112753;1202;73714;-80
2021/08/26 01:19:17;;;;;;;12.20;2.60;;;;;;;13.87;99.93;100458.64;112857;1202;60810;-81
2021/08/26 01:21:43;;;;;;;5.40;2.10;;;;;;;13.87;99.96;100457.82;111988;1205;61084;-81
2021/08/26 01:24:16;;;;;;;10.20;2.10;;;;;;;13.85;99.81;100456.30;111539;1202;61099;-88
2021/08/26 01:26:46;;;;;;;8.80;1.70;;;;;;;13.84;99.65;100454.88;111863;1200;61153;-82
2021/08/26 01:29:14;;;;;;;8.90;2.00;;;;;;;13.83;99.71;100450.69;111245;1203;74561;-82
2021/08/26 01:31:42;;;;;;;9.10;2.30;;;;;;;13.82;99.60;100454.25;111657;1200;71118;-79
2021/08/26 01:34:09;;;;;;;4.90;2.40;;;;;;;13.80;99.80;100452.56;111182;1202;73294;-79
2021/08/26 01:36:37;;;;;;;6.10;2.20;;;;;;;13.77;99.69;100451.08;111140;1202;61182;-80
2021/08/26 01:39:08;;;;;;;8.60;2.50;;;;;;;13.76;99.63;100453.33;111612;1202;61041;-79
2021/08/26 01:41:55;;;;;;;3.60;1.50;;;;;;;13.75;99.40;100453.38;111178;1201;75807;-77
2021/08/26 01:44:24;;;;;;;5.70;1.60;;;;;;;13.72;99.21;100447.37;111228;1203;72439;-80
2021/08/26 01:46:52;;;;;;;7.50;1.80;;;;;;;13.71;99.21;100445.45;111363;1202;73530;-79
2021/08/26 01:49:19;;;;;;;8.00;2.60;;;;;;;13.69;99.04;100446.60;111309;1202;63144;-79
2021/08/26 01:51:45;;;;;;;11.40;2.50;;;;;;;13.65;98.93;100443.95;111181;1203;61079;-78
2021/08/26 01:54:12;;;;;;;7.80;2.70;;;;;;;13.63;98.64;100447.77;111058;1204;75477;-79
2021/08/26 01:56:38;;;;;;;8.60;2.60;;;;;;;13.61;98.30;100448.04;111244;1195;61011;-79
2021/08/26 01:59:05;;;;;;;10.50;2.10;;;;;;;13.61;98.23;100445.63;111189;1202;61002;-79
2021/08/26 02:01:32;;;;;;;8.00;2.00;;;;;;;13.61;98.32;100444.96;110906;1202;62152;-78
2021/08/26 02:03:59;;;;;;;12.00;2.50;;;;;;;13.60;98.07;100440.58;110861;1201;61166;-78
2021/08/26 02:06:25;;;;;;;10.30;2.90;;;;;;;13.59;98.28;100442.30;111103;1202;61053;-79
2021/08/26 02:08:52;;;;;;;11.60;2.60;;;;;;;13.59;98.34;100439.27;111150;1200;62042;-80
2021/08/26 02:11:18;;;;;;;6.20;2.30;;;;;;;13.59;98.59;100430.23;111099;1202;60995;-79
2021/08/26 02:13:44;;;;;;;8.10;2.40;;;;;;;13.58;98.35;100427.29;110919;1202;61086;-79
2021/08/26 02:16:14;;;;;;;8.20;2.60;;;;;;;13.58;98.24;100424.30;111222;1202;61079;-79
2021/08/26 02:18:42;;;;;;;15.80;2.80;;;;;;;13.58;97.92;100420.89;111099;1201;76376;-78
2021/08/26 02:21:11;;;;;;;6.40;2.20;;;;;;;13.59;97.56;100415.89;110959;1202;72150;-79
2021/08/26 02:23:38;;;;;;;14.10;3.00;;;;;;;13.60;96.43;100422.63;111319;1202;72640;-77
2021/08/26 02:26:05;;;;;;;7.50;2.00;;;;;;;13.61;96.89;100426.55;111577;1198;61015;-79
2021/08/26 02:28:32;;;;;;;8.30;2.90;;;;;;;13.62;97.22;100426.80;111170;1203;61057;-79
2021/08/26 02:30:58;;;;;;;16.50;3.40;;;;;;;13.62;97.05;100424.46;111266;1202;74916;-80
2021/08/26 02:33:25;;;;;;;7.40;2.10;;;;;;;13.63;97.42;100424.19;111221;1202;61095;-80
2021/08/26 02:35:52;;;;;;;9.30;2.70;;;;;;;13.62;97.51;100420.41;111146;1204;61124;-79
2021/08/26 02:38:18;;;;;;;10.90;2.60;;;;;;;13.61;97.58;100427.88;111197;1202;61881;-78
2021/08/26 02:40:45;;;;;;;9.60;2.10;;;;;;;13.59;97.69;100424.17;111392;1200;61784;-80
2021/08/26 02:43:11;;;;;;;11.70;2.90;;;;;;;13.58;97.69;100425.44;111343;1202;74684;-80
2021/08/26 02:45:38;;;;;;;13.60;3.50;;;;;;;13.57;98.07;100424.71;111273;1203;71288;-80
2021/08/26 02:48:05;;;;;;;11.40;2.60;;;;;;;13.55;98.11;100425.40;111317;1195;72312;-80
2021/08/26 02:50:31;;;;;;;11.90;2.50;;;;;;;13.54;98.18;100429.82;111266;1202;63056;-79
2021/08/26 02:52:58;;;;;;;9.20;2.30;;;;;;;13.53;98.20;100428.10;111219;1203;60974;-79
2021/08/26 02:55:25;;;;;;;9.70;2.00;;;;;;;13.51;98.19;100426.86;111181;1200;73745;-81
2021/08/26 02:57:51;;;;;;;8.50;2.60;;;;;;;13.50;98.25;100423.58;111452;1202;60944;-80
2021/08/26 03:00:18;;;;;;;7.40;2.20;;;;;;;13.48;98.22;100424.96;111252;1202;72691;-79
2021/08/26 03:02:45;;;;;;;14.60;3.10;;;;;;;13.45;98.20;100427.63;111012;1202;61921;-80
2021/08/26 03:05:12;;;;;;;17.90;2.40;;;;;;;13.42;98.27;100425.32;111296;1202;61056;-79
2021/08/26 03:07:39;;;;;;;9.80;3.20;;;;;;;13.40;98.51;100428.98;111422;1200;74799;-80
2021/08/26 03:10:06;;;;;;;11.60;2.30;;;;;;;13.37;98.55;100428.73;111287;1200;61102;-80
2021/08/26 03:12:32;;;;;;;6.10;2.30;;;;;;;13.35;98.69;100422.50;111384;1202;73384;-80
2021/08/26 03:14:59;;;;;;;14.20;2.90;;;;;;;13.33;98.71;100421.23;111355;1195;61079;-79
2021/08/26 03:17:25;;;;;;;10.70;2.30;;;;;;;13.30;98.79;100418.58;111304;1202;61200;-80
2021/08/26 03:19:52;;;;;;;9.10;3.20;;;;;;;13.26;98.87;100419.21;111379;1201;61013;-79
2021/08/26 03:22:18;;;;;;;13.00;2.40;;;;;;;13.22;99.09;100425.30;111056;1203;72166;-79
2021/08/26 03:24:45;;;;;;;11.90;3.30;;;;;;;13.17;99.25;100422.98;111087;1202;61115;-80
2021/08/26 03:27:11;;;;;;;11.90;2.30;;;;;;;13.13;99.37;100423.52;111063;1195;61127;-79
2021/08/26 03:29:38;;;;;;;18.40;4.00;;;;;;;13.10;99.65;100422.02;111170;1195;61108;-78
2021/08/26 03:32:05;;;;;;;11.70;3.10;;;;;;;13.06;99.51;100425.63;111250;1195;61381;-79
2021/08/26 03:34:32;;;;;;;13.30;3.60;;;;;;;13.03;99.79;100423.77;111242;1203;71144;-78
2021/08/26 03:36:58;;;;;;;17.90;3.70;;;;;;;13.01;100.00;100429.73;111121;1202;73707;-80
2021/08/26 03:39:25;;;;;;;15.00;3.50;;;;;;;13.00;100.00;100432.69;111381;1204;62028;-80
2021/08/26 03:41:51;;;;;;;25.40;4.50;;;;;;;12.99;100.00;100431.59;111234;1202;61063;-78
2021/08/26 03:44:18;;;;;;;13.70;3.80;;;;;;;12.99;100.00;100433.72;111259;1202;60977;-80
2021/08/26 03:46:44;;;;;;;13.00;2.70;;;;;;;12.99;100.00;100437.61;111306;1195;61706;-78
2021/08/26 03:49:11;;;;;;;9.90;2.20;;;;;;;13.00;100.00;100433.42;111159;1203;61050;-78
2021/08/26 03:51:37;;;;;;;11.70;2.70;;;;;;;12.99;100.00;100431.13;111154;1202;61065;-79
2021/08/26 03:54:03;;;;;;;9.70;2.60;;;;;;;13.00;100.00;100430.92;111198;1203;61813;-80
2021/08/26 03:56:30;;;;;;;9.90;2.30;;;;;;;12.98;100.00;100432.18;111282;1202;61004;-80
2021/08/26 03:58:56;;;;;;;12.10;2.90;;;;;;;12.97;100.00;100429.85;111224;1202;62802;-80
2021/08/26 04:01:23;;;;;;;13.10;2.60;;;;;;;12.97;100.00;100427.39;111238;1202;61583;-79
2021/08/26 04:03:50;;;;;;;6.90;1.90;;;;;;;12.96;100.00;100425.89;111352;1202;61036;-80
2021/08/26 04:06:16;;;;;;;15.10;2.70;;;;;;;12.96;100.00;100427.52;111332;1203;61015;-79
2021/08/26 04:08:43;;;;;;;8.80;2.80;;;;;;;12.97;100.00;100421.58;111272;1202;61101;-79
2021/08/26 04:11:09;;;;;;;10.80;2.20;;;;;;;12.96;100.00;100418.06;111239;1202;61698;-79
2021/08/26 04:13:36;;;;;;;11.80;2.50;;;;;;;12.95;100.00;100412.39;111131;1202;61105;-81
2021/08/26 04:16:03;;;;;;;12.30;3.20;;;;;;;12.93;100.00;100410.91;111220;1203;61082;-80
2021/08/26 04:18:29;;;;;;;12.70;2.40;;;;;;;12.89;100.00;100414.04;111404;1201;61070;-80
2021/08/26 04:20:56;;;;;;;13.00;2.90;;;;;;;12.86;100.00;100414.06;111323;1203;61112;-80
2021/08/26 04:23:23;;;;;;;9.70;3.40;;;;;;;12.83;100.00;100412.36;111356;1201;61662;-81
2021/08/26 04:25:49;;;;;;;11.20;2.00;;;;;;;12.81;100.00;100412.93;111491;1203;72287;-80
2021/08/26 04:28:16;;;;;;;11.50;4.10;;;;;;;12.80;100.00;100409.98;113604;1200;60976;-82
2021/08/26 04:30:42;;;;;;;18.70;4.20;;;;;;;12.81;100.00;100409.20;113258;1195;60999;-80
2021/08/26 04:33:09;;;;;;;12.40;2.20;;;;;;;12.82;100.00;100414.25;113515;1200;74509;-80
2021/08/26 04:35:35;;;;;;;8.30;1.70;;;;;;;12.84;100.00;100417.70;111816;1203;61054;-80
2021/08/26 04:38:02;;;;;;;17.50;3.50;;;;;;;12.87;100.00;100414.52;111387;1202;61031;-82
2021/08/26 04:40:29;;;;;;;22.70;4.30;;;;;;;12.89;100.00;100414.53;111448;1203;61030;-83
2021/08/26 04:42:55;;;;;;;12.30;2.70;;;;;;;12.92;100.00;100411.34;111381;1202;61021;-82
2021/08/26 04:45:22;;;;;;;8.30;2.30;;;;;;;12.97;100.00;100413.05;111393;1195;61089;-83
2021/08/26 04:47:48;;;;;;;12.60;2.50;;;;;;;13.01;100.00;100409.84;111378;1202;61897;-82
2021/08/26 04:50:15;;;;;;;10.10;2.50;;;;;;;13.04;100.00;100404.20;111316;1200;73521;-82
2021/08/26 04:52:42;;;;;;;10.90;2.70;;;;;;;13.10;100.00;100409.46;111353;1195;61960;-81
2021/08/26 04:55:09;;;;;;;18.40;3.70;;;;;;;13.14;99.96;100407.30;111374;1201;62179;-81
2021/08/26 04:57:35;;;;;;;13.50;3.60;;;;;;;13.18;99.86;100403.68;111353;1201;75008;-82
2021/08/26 05:00:04;;;;;;;14.80;2.50;;;;;;;13.22;99.78;100407.80;111247;1203;61095;-80
2021/08/26 05:02:31;;;;;;;20.30;3.60;;;;;;;13.27;99.34;100412.58;111396;1203;72457;-82
2021/08/26 05:04:58;;;;;;;14.20;3.40;;;;;;;13.31;98.77;100406.47;111406;1202;63505;-82
2021/08/26 05:07:25;;;;;;;12.90;3.10;;;;;;;13.36;98.84;100414.23;111447;1201;60982;-83
2021/08/26 05:09:51;;;;;;;11.60;2.60;;;;;;;13.40;98.42;100417.27;111520;1202;74745;-83
2021/08/26 05:12:18;;;;;;;14.40;3.60;;;;;;;13.43;98.12;100415.61;111497;1201;71146;-72
2021/08/26 05:14:54;;;;;;;13.00;2.90;;;;;;;13.48;97.65;100421.02;110808;1202;61027;-71
2021/08/26 05:17:20;;;;;;;18.60;4.00;;;;;;;13.51;97.32;100432.68;110828;1195;61920;-73
2021/08/26 05:19:47;;;;;;;20.50;6.80;;;;;;;13.56;97.15;100427.48;110993;1203;62255;-74
2021/08/26 05:22:13;;;;;;;15.60;3.00;;;;;;;13.59;96.89;100429.27;110999;1202;75550;-73
2021/08/26 05:24:40;;;;;;;15.60;3.10;;;;;;;13.62;96.88;100432.70;111196;1201;71081;-74
2021/08/26 05:27:06;;;;;;;12.20;3.10;;;;;;;13.64;96.54;100422.84;111051;1201;73532;-74
2021/08/26 05:29:33;;;;;;;11.10;3.30;;;;;;;13.67;96.68;100421.69;110898;1194;61156;-76
2021/08/26 05:32:00;;;;;;;15.60;3.30;;;;;;;13.70;96.52;100423.46;111013;1204;61252;-72
2021/08/26 05:34:26;;;;;;;17.60;3.50;;;;;;;13.73;96.02;100419.70;110903;1201;61091;-72
2021/08/26 05:36:53;;;;;;;13.10;3.50;;;;;;;13.78;96.31;100419.25;110824;1200;71852;-73
2021/08/26 05:39:19;;;;;;;14.70;3.20;;;;;;;13.80;95.88;100426.23;111074;1202;61955;-72
2021/08/26 05:41:46;;;;;;;9.80;2.90;;;;;;;13.85;95.86;100422.73;111163;1195;61186;-74
2021/08/26 05:44:14;;;;;;;9.10;2.70;;;;;;;13.90;95.72;100415.21;111128;1203;61433;-72
2021/08/26 05:46:42;;;;;;;9.80;2.80;;;;;;;13.94;95.43;100420.42;111087;1201;75761;-72
2021/08/26 05:49:09;;;;;;;15.30;5.20;;;;;;;13.99;95.42;100422.89;111096;1202;71081;-75
2021/08/26 05:51:35;;;;;;;15.60;3.40;;;;;;;14.02;95.38;100422.55;110822;1201;73507;-72
2021/08/26 05:54:02;;;;;;;9.80;2.30;;;;;;;14.05;95.01;100426.83;111010;1202;61654;-74
2021/08/26 05:56:30;;;;;;;13.90;2.50;;;;;;;14.07;94.81;100427.98;110834;1202;61745;-75
2021/08/26 05:58:57;;;;;;;12.00;2.80;;;;;;;14.12;94.75;100427.41;110866;1201;74609;-74
2021/08/26 06:01:28;;;;;;;13.30;3.10;;;;;;;14.14;94.60;100429.38;111031;1203;72153;-74
2021/08/26 06:03:56;;;;;;;10.20;3.20;;;;;;;14.19;94.52;100431.52;111886;1196;73565;-74
2021/08/26 06:06:23;;;;;;;11.10;2.80;;;;;;;14.26;94.45;100431.02;111146;1201;61877;-75
2021/08/26 06:08:49;;;;;;;12.30;3.10;;;;;;;14.34;94.15;100428.19;111041;1203;61060;-75
2021/08/26 06:11:16;;;;;;;11.90;3.10;;;;;;;14.38;93.65;100424.54;110846;1202;75593;-75
2021/08/26 06:13:43;;;;;;;15.20;3.30;;;;;;;14.43;93.41;100426.09;110757;1200;70985;-73
2021/08/26 06:16:09;;;;;;;10.70;2.60;;;;;;;14.49;93.43;100421.52;111141;1203;61012;-72
2021/08/26 06:18:36;;;;;;;12.70;3.40;;;;;;;14.53;92.70;100423.08;111063;1202;63081;-80
2021/08/26 06:21:02;;;;;;;11.10;2.60;;;;;;;14.55;92.47;100419.10;111214;1197;60999;-76
2021/08/26 06:23:29;;;;;;;11.30;2.10;;;;;;;14.56;92.46;100418.06;111061;1195;61021;-74
2021/08/26 06:25:55;;;;;;;12.70;3.00;;;;;;;14.58;92.46;100420.42;111141;1202;61096;-76
2021/08/26 06:28:22;;;;;;;16.70;4.10;;;;;;;14.60;92.10;100417.39;111086;1201;73147;-77
2021/08/26 06:30:48;;;;;;;17.10;4.00;;;;;;;14.62;92.08;100410.15;111038;1201;61055;-76
2021/08/26 06:33:15;;;;;;;18.00;3.50;;;;;;;14.65;92.26;100411.64;110975;1195;61056;-77
2021/08/26 06:35:41;;;;;;;10.50;2.60;;;;;;;14.67;91.83;100419.21;111034;1202;61008;-77
2021/08/26 06:38:08;;;;;;;12.40;3.10;;;;;;;14.68;91.71;100419.96;111120;1201;61068;-74
2021/08/26 06:40:34;;;;;;;14.00;3.30;;;;;;;14.71;91.90;100427.96;111165;1201;61098;-76
2021/08/26 06:43:01;;;;;;;14.60;3.00;;;;;;;14.73;91.65;100424.14;111200;1202;61088;-76
2021/08/26 06:45:27;;;;;;;18.00;3.30;;;;;;;14.76;91.56;100418.74;111186;1202;61006;-76
2021/08/26 06:47:54;;;;;;;13.00;2.90;;;;;;;14.84;91.40;100423.33;111177;1203;62249;-75
2021/08/26 06:50:21;;;;;;;22.10;4.20;;;;;;;14.92;90.66;100429.80;110971;1198;71027;-75
2021/08/26 06:52:47;;;;;;;20.50;4.50;;;;;;;15.06;90.70;100436.00;110911;1203;61074;-76
2021/08/26 06:55:14;;;;;;;12.80;2.80;;;;;;;15.16;90.52;100435.88;110921;1202;61082;-75
2021/08/26 06:57:40;;;;;;;10.10;4.10;;;;;;;15.26;89.85;100435.39;110869;1202;61082;-76
2021/08/26 07:00:08;;;;;;;16.10;3.20;;;;;;;15.33;88.83;100437.92;110797;1202;61028;-75
2021/08/26 07:02:35;;;;;;;11.10;3.30;;;;;;;15.35;88.29;100434.11;111042;1201;72272;-75
2021/08/26 07:05:03;;;;;;;10.60;2.90;;;;;;;15.37;88.02;100429.76;111216;1202;74152;-76
2021/08/26 07:07:29;;;;;;;15.40;4.30;;;;;;;15.36;87.86;100434.85;111174;1201;62465;-77
2021/08/26 07:09:57;;;;;;;10.60;2.90;;;;;;;15.35;87.87;100437.73;111259;1196;61089;-76
2021/08/26 07:12:25;;;;;;;12.20;3.20;;;;;;;15.41;88.12;100440.23;111274;1201;74640;-78
2021/08/26 07:14:51;;;;;;;8.30;2.30;;;;;;;15.48;87.73;100447.02;110904;1202;72571;-75
2021/08/26 07:17:18;;;;;;;16.00;4.20;;;;;;;15.49;87.42;100450.95;110823;1202;61108;-76
2021/08/26 07:19:44;;;;;;;13.00;2.80;;;;;;;15.49;87.35;100443.59;111008;1203;61074;-76
2021/08/26 07:22:11;;;;;;;17.20;5.70;;;;;;;15.51;87.12;100441.73;111137;1202;61101;-77
2021/08/26 07:24:37;;;;;;;21.80;4.20;;;;;;;15.53;87.33;100438.15;110830;1201;61005;-75
2021/08/26 07:27:04;;;;;;;13.80;4.50;;;;;;;15.59;87.34;100431.95;111085;1201;61151;-76
2021/08/26 07:29:30;;;;;;;13.50;3.70;;;;;;;15.73;87.23;100425.84;111293;1202;61604;-74
2021/08/26 07:31:57;;;;;;;14.50;3.30;;;;;;;15.86;86.15;100425.39;110971;1202;61111;-76
2021/08/26 07:34:23;;;;;;;10.60;3.10;;;;;;;15.91;85.61;100424.73;110941;1201;61063;-75
2021/08/26 07:36:49;;;;;;;17.10;4.00;;;;;;;15.91;85.25;100415.02;110952;1201;61091;-74
2021/08/26 07:39:16;;;;;;;9.90;3.30;;;;;;;15.94;85.64;100408.00;110994;1202;61095;-76
2021/08/26 07:41:42;;;;;;;8.50;2.90;;;;;;;15.98;85.83;100399.91;111065;1201;60977;-74
2021/08/26 07:44:09;;;;;;;15.70;3.30;;;;;;;15.96;85.06;100391.66;111159;1203;61085;-76
2021/08/26 07:46:35;;;;;;;9.50;2.90;;;;;;;15.90;84.86;100384.04;111127;1201;61075;-75
2021/08/26 07:49:02;;;;;;;13.50;3.00;;;;;;;15.90;84.88;100387.41;110900;1201;61389;-76
2021/08/26 07:51:29;;;;;;;12.80;3.40;;;;;;;15.93;85.04;100384.77;110865;1203;61583;-76
2021/08/26 07:53:55;;;;;;;17.20;4.00;;;;;;;15.97;84.76;100387.24;110891;1202;61063;-74
2021/08/26 07:56:22;;;;;;;15.70;4.60;;;;;;;16.04;85.07;100382.99;110889;1203;61100;-75
2021/08/26 07:58:48;;;;;;;10.00;3.30;;;;;;;16.14;84.77;100391.27;111193;1201;61002;-75
2021/08/26 08:01:15;;;;;;;11.40;2.90;;;;;;;16.23;84.82;100393.69;111211;1201;61076;-75
2021/08/26 08:03:42;;;;;;;15.30;3.90;;;;;;;16.29;84.52;100396.73;111005;1201;61763;-76
2021/08/26 08:06:08;;;;;;;13.50;3.90;;;;;;;16.34;83.99;100397.34;110920;1201;60998;-77
2021/08/26 08:08:35;;;;;;;9.80;3.50;;;;;;;16.36;83.70;100399.87;110943;1202;61091;-74
2021/08/26 08:11:02;;;;;;;10.40;4.00;;;;;;;16.34;83.12;100419.66;111075;1202;61529;-75
2021/08/26 08:13:31;;;;;;;14.50;5.50;;;;;;;16.33;83.21;100417.45;111196;1202;75663;-77
2021/08/26 08:15:57;;;;;;;14.40;4.60;;;;;;;16.36;83.66;100420.59;111064;1195;71271;-77
2021/08/26 08:18:24;;;;;;;13.10;3.40;;;;;;;16.37;83.07;100428.86;111185;1201;73522;-76
2021/08/26 08:20:51;;;;;;;16.50;5.00;;;;;;;16.34;82.91;100427.98;111176;1203;62096;-75
2021/08/26 08:23:18;;;;;;;7.40;2.80;;;;;;;16.27;82.97;100422.80;110960;1202;61057;-77
2021/08/26 08:25:44;;;;;;;15.50;3.90;;;;;;;16.30;83.49;100417.42;110908;1202;61075;-76
2021/08/26 08:28:13;;;;;;;14.00;3.70;;;;;;;16.42;83.14;100427.17;111054;1201;61496;-75
2021/08/26 08:30:40;;;;;;;12.70;4.10;;;;;;;16.57;82.62;100423.86;111520;1202;72469;-78
2021/08/26 08:33:06;;;;;;;18.60;5.30;;;;;;;16.66;83.13;100414.61;111010;1201;61262;-77
2021/08/26 08:35:33;;;;;;;12.70;4.10;;;;;;;16.81;82.35;100417.81;110820;1195;61069;-77
2021/08/26 08:37:59;;;;;;;20.50;4.10;;;;;;;16.96;81.82;100418.73;111190;1201;61640;-77
2021/08/26 08:40:26;;;;;;;13.10;3.30;;;;;;;17.11;80.86;100428.29;111276;1202;70438;-75
2021/08/26 08:42:53;;;;;;;10.10;4.20;;;;;;;17.19;79.60;100438.80;111273;1201;73556;-75
2021/08/26 08:45:22;;;;;;;11.50;3.50;;;;;;;17.24;79.07;100437.55;111344;1202;61690;-75
2021/08/26 08:47:50;;;;;;;10.20;3.80;;;;;;;17.24;78.63;100439.52;111103;1202;61606;-76
2021/08/26 08:50:23;;;;;;;11.40;3.50;;;;;;;17.25;78.16;100427.59;111803;1195;76268;-75
2021/08/26 08:52:52;;;;;;;11.00;3.10;;;;;;;17.34;78.62;100423.84;111065;1201;70633;-76
2021/08/26 08:55:19;;;;;;;11.00;3.90;;;;;;;17.36;77.45;100428.23;110957;1203;73517;-76
2021/08/26 08:57:46;;;;;;;9.70;3.80;;;;;;;17.35;77.11;100433.94;111024;1203;61101;-76
2021/08/26 09:00:15;;;;;;;12.30;3.50;;;;;;;17.34;77.38;100438.85;111221;1201;61064;-74
2021/08/26 09:02:42;;;;;;;11.00;3.20;;;;;;;17.30;77.23;100433.86;111269;1202;75537;-76
2021/08/26 09:05:09;;;;;;;9.50;2.60;;;;;;;17.27;77.10;100438.74;111216;1195;70970;-77
2021/08/26 09:07:37;;;;;;;13.70;3.80;;;;;;;17.26;78.14;100438.25;111283;1202;73699;-77
2021/08/26 09:10:07;;;;;;;12.80;3.80;;;;;;;17.28;78.20;100441.05;111492;1194;61114;-75
2021/08/26 09:12:40;;;;;;;11.10;3.80;;;;;;;17.29;77.76;100444.77;111001;1201;61115;-76
2021/08/26 09:15:08;;;;;;;9.00;3.10;;;;;;;17.35;77.31;100439.41;111289;1201;74488;-75
2021/08/26 09:17:34;;;;;;;9.70;2.60;;;;;;;17.48;76.90;100440.02;111291;1195;71054;-75
2021/08/26 09:20:03;;;;;;;9.70;3.00;;;;;;;17.58;76.03;100432.30;111070;1202;72543;-76
2021/08/26 09:22:31;;;;;;;10.30;3.50;;;;;;;17.70;76.12;100430.52;111227;1201;61844;-75
2021/08/26 09:24:58;;;;;;;18.30;7.20;;;;;;;17.75;74.59;100430.55;110935;1201;61677;-76
2021/08/26 09:27:40;;;;;;;12.30;4.60;;;;;;;17.81;75.22;100424.56;110909;1202;76172;-75
2021/08/26 09:30:19;;;;;;;9.80;3.20;;;;;;;17.97;75.31;100422.80;110931;1202;71961;-76
2021/08/26 09:32:47;;;;;;;7.10;2.10;;;;;;;18.20;73.15;100422.20;110951;1201;71509;-76
2021/08/26 09:35:22;;;;;;;15.20;3.80;;;;;;;18.38;73.27;100424.55;111170;1201;61098;-76
2021/08/26 09:38:07;;;;;;;12.40;3.40;;;;;;;18.55;73.04;100427.09;111038;1201;60970;-76
2021/08/26 09:40:46;;;;;;;9.10;2.90;;;;;;;18.61;71.28;100427.60;111138;1198;74539;-75
2021/08/26 09:43:13;;;;;;;12.60;3.70;;;;;;;18.64;71.62;100421.33;111037;1195;71608;-74
2021/08/26 09:45:46;;;;;;;6.30;2.00;;;;;;;18.66;70.98;100415.52;110827;1202;72506;-75
2021/08/26 09:48:15;;;;;;;7.80;2.80;;;;;;;18.64;70.68;100415.52;110956;1202;61121;-74
2021/08/26 09:50:46;;;;;;;13.10;3.50;;;;;;;18.58;70.41;100417.58;110999;1202;61009;-73
2021/08/26 09:53:15;;;;;;;6.80;2.90;;;;;;;18.41;70.26;100414.30;111054;1202;75298;-71
2021/08/26 09:55:48;;;;;;;11.10;2.90;;;;;;;18.34;71.06;100412.20;111189;1202;72761;-73
2021/08/26 09:58:16;;;;;;;11.30;2.70;;;;;;;18.21;70.51;100410.08;110981;1201;73593;-74
2021/08/26 10:00:44;;;;;;;11.70;3.60;;;;;;;18.17;71.82;100411.34;110836;1202;61002;-74
2021/08/26 10:03:12;;;;;;;9.00;2.90;;;;;;;18.20;72.21;100411.99;111174;1201;62738;-72
2021/08/26 10:05:44;;;;;;;8.20;2.40;;;;;;;18.22;72.13;100411.98;111114;1202;74206;-73
2021/08/26 10:08:12;;;;;;;10.70;2.70;;;;;;;18.21;72.07;100411.92;111113;1201;72043;-72
2021/08/26 10:10:40;;;;;;;8.80;3.40;;;;;;;18.21;71.41;100410.95;111063;1203;74031;-74
2021/08/26 10:13:09;;;;;;;10.90;3.10;;;;;;;18.22;70.00;100413.07;110909;1202;61006;-74
2021/08/26 10:15:38;;;;;;;7.60;2.20;;;;;;;18.25;69.94;100411.15;111190;1202;61057;-74
2021/08/26 10:18:06;;;;;;;6.40;2.70;;;;;;;18.31;69.78;100418.16;111436;1196;73901;-75
2021/08/26 10:20:32;;;;;;;10.90;3.00;;;;;;;18.44;70.39;100419.96;111042;1202;70608;-72
2021/08/26 10:23:00;;;;;;;8.40;2.50;;;;;;;18.64;70.66;100422.13;110840;1202;73604;-75
2021/08/26 10:25:27;;;;;;;13.30;3.20;;;;;;;18.85;69.42;100421.89;111427;1201;61338;-75
2021/08/26 10:27:57;;;;;;;9.50;3.10;;;;;;;18.90;66.82;100425.06;110887;1201;61570;-75
2021/08/26 10:30:31;;;;;;;13.40;3.40;;;;;;;18.86;67.30;100422.77;111386;1201;74769;-75
2021/08/26 10:33:15;;;;;;;7.20;2.40;;;;;;;18.90;67.89;100423.11;111251;1201;70866;-75
2021/08/26 10:35:51;;;;;;;7.00;2.10;;;;;;;18.75;65.79;100433.71;111061;1202;74599;-73
2021/08/26 10:38:25;;;;;;;7.10;2.10;;;;;;;18.61;66.57;100430.00;110854;1201;61506;-73
2021/08/26 10:40:53;;;;;;;8.80;3.30;;;;;;;18.43;66.42;100432.41;110901;1202;61496;-73
2021/08/26 10:43:34;;;;;;;9.90;2.60;;;;;;;18.23;67.83;100425.48;110862;1202;75754;-73
2021/08/26 10:46:03;;;;;;;8.40;2.00;;;;;;;17.93;70.71;100422.91;111134;1202;71980;-73
2021/08/26 10:48:30;;;;;;;5.90;2.10;;;;;;;17.67;72.83;100420.21;111103;1201;71320;-71
2021/08/26 10:51:17;;;;;;;8.50;2.30;;;;;;;17.54;74.51;100428.11;110889;1201;62828;-72
2021/08/26 10:53:48;;;;;;;5.80;1.60;;;;;;;17.38;72.89;100430.31;110950;1203;61188;-74
2021/08/26 10:56:25;;;;;;;4.10;1.00;;;;;;;17.24;69.82;100425.86;110826;1203;76090;-74
2021/08/26 10:58:57;;;;;;;3.50;0.90;;;;;;;17.08;67.88;100421.97;110918;1202;71095;-75
2021/08/26 11:01:27;;;;;;;3.70;1.60;;;;;;;17.00;67.76;100420.38;110941;1202;72486;-74
2021/08/26 11:04:06;;;;;;;5.00;1.40;;;;;;;16.98;69.54;100417.89;111100;1202;61681;-73
2021/08/26 11:06:35;;;;;;;7.00;1.50;;;;;;;17.01;70.71;100409.77;111182;1202;61108;-73
2021/08/26 11:09:13;;;;;;;4.10;1.20;;;;;;;17.17;71.87;100413.98;111397;1195;74648;-73
2021/08/26 11:11:45;;;;;;;8.50;1.50;;;;;;;17.45;71.03;100407.93;110847;1201;70968;-71
2021/08/26 11:14:12;;;;;;;5.10;1.00;;;;;;;17.74;69.43;100409.05;110953;1195;72485;-73
2021/08/26 11:16:44;;;;;;;6.40;1.80;;;;;;;17.81;68.30;100400.56;110996;1201;61094;-70
2021/08/26 11:19:11;;;;;;;4.90;1.70;;;;;;;17.96;69.16;100398.80;111251;1195;61414;-72
2021/08/26 11:21:40;;;;;;;4.50;2.10;;;;;;;18.28;68.71;100401.32;111143;1201;61529;-71